createdAt,value
2018-06-20T00:47:26.121Z,0
2018-06-20T00:48:35.000Z,0
2018-06-20T00:49:44.149Z,0
2018-06-20T00:50:53.033Z,0
2018-06-20T00:52:01.907Z,0
2018-06-20T00:53:10.785Z,0
2018-06-20T00:54:19.672Z,0
2018-06-20T00:55:28.549Z,0
2018-06-20T00:56:37.415Z,0
2018-06-20T00:57:46.281Z,0
2018-06-20T00:58:55.473Z,0
2018-06-20T01:00:04.611Z,0
2018-06-20T01:01:13.469Z,0
2018-06-20T01:02:22.327Z,0
2018-06-20T01:03:31.191Z,0
2018-06-20T01:04:40.100Z,0
2018-06-20T01:05:48.962Z,0
2018-06-20T01:06:57.825Z,0
2018-06-20T01:08:06.687Z,0
2018-06-20T01:09:15.551Z,0
2018-06-20T01:10:24.441Z,0
2018-06-20T01:11:34.277Z,0
2018-06-20T01:12:43.428Z,0
2018-06-20T01:13:52.390Z,0
2018-06-20T01:15:01.250Z,0
2018-06-20T01:16:10.160Z,0
2018-06-20T01:17:19.025Z,0
2018-06-20T01:18:28.180Z,0
2018-06-20T01:19:37.040Z,0
2018-06-20T01:20:45.905Z,0
2018-06-20T01:21:55.195Z,0
2018-06-20T01:23:04.054Z,0
2018-06-20T01:24:12.916Z,0
2018-06-20T01:25:21.779Z,0
2018-06-20T01:26:30.643Z,0
2018-06-20T01:27:39.553Z,0
2018-06-20T01:28:48.415Z,0
2018-06-20T01:29:57.273Z,0
2018-06-20T01:31:06.134Z,0
2018-06-20T01:32:14.995Z,0
2018-06-20T01:33:23.857Z,0
2018-06-20T01:34:32.992Z,0
2018-06-20T01:35:41.857Z,0
2018-06-20T01:36:50.996Z,0
2018-06-20T01:37:59.855Z,0
2018-06-20T01:39:09.095Z,0
2018-06-20T01:40:17.955Z,0
2018-06-20T01:41:27.102Z,0
2018-06-20T01:42:35.962Z,0
2018-06-20T01:43:44.821Z,0
2018-06-20T01:44:53.934Z,0
2018-06-20T01:46:02.793Z,0
2018-06-20T01:47:11.937Z,0
2018-06-20T01:48:20.800Z,0
2018-06-20T01:49:29.662Z,0
2018-06-20T01:50:38.624Z,0
2018-06-20T01:51:47.775Z,0
2018-06-20T01:52:57.193Z,0
2018-06-20T01:54:06.054Z,0
2018-06-20T01:55:14.917Z,0
2018-06-20T01:56:24.200Z,0
2018-06-20T01:57:33.064Z,0
2018-06-20T01:58:41.927Z,0
2018-06-20T01:59:51.071Z,0
2018-06-20T02:00:59.934Z,0
2018-06-20T02:02:09.122Z,0
2018-06-20T02:03:17.986Z,0
2018-06-20T02:04:26.847Z,0
2018-06-20T02:05:35.984Z,0
2018-06-20T02:06:44.846Z,0
2018-06-20T02:07:53.761Z,0
2018-06-20T02:09:02.903Z,0
2018-06-20T02:10:11.763Z,0
2018-06-20T02:11:20.628Z,0
2018-06-20T02:12:29.490Z,0
2018-06-20T02:13:38.358Z,0
2018-06-20T02:14:47.222Z,0
2018-06-20T02:15:56.083Z,0
2018-06-20T02:17:05.221Z,0
2018-06-20T02:18:14.083Z,0
2018-06-20T02:19:23.295Z,0
2018-06-20T02:20:32.438Z,0
2018-06-20T02:21:41.298Z,0
2018-06-20T02:22:50.153Z,0
2018-06-20T02:23:59.023Z,0
2018-06-20T02:25:08.409Z,0
2018-06-20T02:26:17.270Z,0
2018-06-20T02:27:26.131Z,0
2018-06-20T02:28:34.992Z,0
2018-06-20T02:29:43.851Z,0
2018-06-20T02:30:52.816Z,0
2018-06-20T02:32:01.953Z,0
2018-06-20T02:33:11.094Z,0
2018-06-20T02:34:19.960Z,0
2018-06-20T02:35:28.839Z,0
2018-06-20T02:36:37.977Z,0
2018-06-20T02:37:47.086Z,0
2018-06-20T02:38:56.512Z,0
2018-06-20T02:40:05.367Z,0
2018-06-20T02:41:14.778Z,0
2018-06-20T02:42:24.027Z,0
2018-06-20T02:43:33.172Z,0
2018-06-20T02:44:42.308Z,0
2018-06-20T02:45:51.453Z,0
2018-06-20T02:47:00.590Z,0
2018-06-20T02:48:09.454Z,0
2018-06-20T02:49:18.876Z,5
2018-06-20T02:50:27.743Z,5
2018-06-20T02:51:36.884Z,5
2018-06-20T02:52:46.219Z,5
2018-06-20T02:53:55.857Z,5
2018-06-20T02:55:05.005Z,5
2018-06-20T02:56:14.419Z,5
2018-06-20T02:57:23.558Z,5
2018-06-20T02:58:32.420Z,10
2018-06-20T02:59:41.940Z,10
2018-06-20T03:00:51.081Z,10
2018-06-20T03:01:59.943Z,10
2018-06-20T03:03:08.806Z,10
2018-06-20T03:04:18.222Z,10
2018-06-20T03:05:27.459Z,10
2018-06-20T03:06:36.892Z,15
2018-06-20T03:07:46.314Z,15
2018-06-20T03:08:55.176Z,15
2018-06-20T03:10:04.628Z,15
2018-06-20T03:11:13.921Z,15
2018-06-20T03:12:23.059Z,20
2018-06-20T03:13:32.206Z,20
2018-06-20T03:14:41.069Z,20
2018-06-20T03:15:50.212Z,20
2018-06-20T03:16:59.072Z,25
2018-06-20T03:18:07.934Z,25
2018-06-20T03:19:16.794Z,25
2018-06-20T03:20:25.935Z,25
2018-06-20T03:21:35.073Z,30
2018-06-20T03:22:43.940Z,30
2018-06-20T03:23:52.815Z,30
2018-06-20T03:25:01.953Z,30
2018-06-20T03:26:10.816Z,35
2018-06-20T03:27:20.051Z,35
2018-06-20T03:28:29.011Z,35
2018-06-20T03:29:38.711Z,40
2018-06-20T03:30:47.575Z,40
2018-06-20T03:31:56.989Z,40
2018-06-20T03:33:05.854Z,45
2018-06-20T03:34:14.717Z,45
2018-06-20T03:35:23.576Z,45
2018-06-20T03:36:32.441Z,45
2018-06-20T03:37:41.301Z,50
2018-06-20T03:38:50.163Z,50
2018-06-20T03:39:59.123Z,50
2018-06-20T03:41:07.984Z,55
2018-06-20T03:42:16.842Z,55
2018-06-20T03:43:25.703Z,55
2018-06-20T03:44:34.565Z,60
2018-06-20T03:45:43.431Z,60
2018-06-20T03:46:52.288Z,60
2018-06-20T03:48:01.149Z,60
2018-06-20T03:49:10.289Z,65
2018-06-20T03:50:19.153Z,65
2018-06-20T03:51:28.364Z,65
2018-06-20T03:52:37.224Z,65
2018-06-20T03:53:46.084Z,70
2018-06-20T03:54:54.946Z,70
2018-06-20T03:56:03.811Z,70
2018-06-20T03:57:13.393Z,75
2018-06-20T03:58:22.255Z,75
2018-06-20T03:59:31.114Z,75
2018-06-20T04:00:39.978Z,75
2018-06-20T04:01:48.859Z,80
2018-06-20T04:02:57.712Z,80
2018-06-20T04:04:06.571Z,80
2018-06-20T04:05:15.439Z,80
2018-06-20T04:06:24.297Z,85
2018-06-20T04:07:33.158Z,85
2018-06-20T04:08:42.120Z,85
2018-06-20T04:09:51.257Z,85
2018-06-20T04:11:00.120Z,90
2018-06-20T04:12:08.980Z,90
2018-06-20T04:13:17.840Z,90
2018-06-20T04:14:26.851Z,90
2018-06-20T04:15:35.715Z,95
2018-06-20T04:16:44.854Z,95
2018-06-20T04:17:53.715Z,95
2018-06-20T04:19:02.855Z,95
2018-06-20T04:20:11.767Z,95
2018-06-20T04:21:20.628Z,100
2018-06-20T04:22:29.489Z,100
2018-06-20T04:23:38.352Z,100
2018-06-20T04:24:47.214Z,100
2018-06-20T04:25:56.078Z,100
2018-06-20T04:27:05.213Z,105
2018-06-20T04:28:14.359Z,105
2018-06-20T04:29:23.219Z,105
2018-06-20T04:30:32.083Z,100
2018-06-20T04:31:41.596Z,105
2018-06-20T04:32:50.458Z,105
2018-06-20T04:33:59.320Z,105
2018-06-20T04:35:08.462Z,105
2018-06-20T04:36:17.888Z,105
2018-06-20T04:37:27.386Z,110
2018-06-20T04:38:36.528Z,110
2018-06-20T04:39:45.393Z,110
2018-06-20T04:40:54.261Z,110
2018-06-20T04:42:03.117Z,115
2018-06-20T04:43:12.076Z,115
2018-06-20T04:44:20.937Z,115
2018-06-20T04:45:30.083Z,115
2018-06-20T04:46:38.947Z,115
2018-06-20T04:47:47.811Z,120
2018-06-20T04:48:56.951Z,115
2018-06-20T04:50:05.818Z,120
2018-06-20T04:51:14.959Z,120
2018-06-20T04:52:23.818Z,125
2018-06-20T04:53:32.683Z,125
2018-06-20T04:54:41.870Z,130
2018-06-20T04:55:50.728Z,130
2018-06-20T04:56:59.588Z,125
2018-06-20T04:58:08.450Z,130
2018-06-20T04:59:17.312Z,130
2018-06-20T05:00:26.224Z,130
2018-06-20T05:01:35.087Z,130
2018-06-20T05:02:43.947Z,130
2018-06-20T05:03:53.093Z,130
2018-06-20T05:05:01.954Z,130
2018-06-20T05:06:10.867Z,130
2018-06-20T05:07:19.729Z,135
2018-06-20T05:08:28.589Z,130
2018-06-20T05:09:38.007Z,135
2018-06-20T05:10:46.867Z,130
2018-06-20T05:11:55.930Z,135
2018-06-20T05:13:04.787Z,135
2018-06-20T05:14:13.928Z,135
2018-06-20T05:15:23.072Z,135
2018-06-20T05:16:31.933Z,140
2018-06-20T05:17:41.171Z,140
2018-06-20T05:18:50.309Z,140
2018-06-20T05:19:59.173Z,140
2018-06-20T05:21:08.037Z,140
2018-06-20T05:22:16.896Z,140
2018-06-20T05:23:25.805Z,140
2018-06-20T05:24:34.676Z,145
2018-06-20T05:25:43.815Z,145
2018-06-20T05:26:52.957Z,145
2018-06-20T05:28:01.814Z,145
2018-06-20T05:29:11.001Z,150
2018-06-20T05:30:19.863Z,150
2018-06-20T05:31:28.728Z,155
2018-06-20T05:32:37.871Z,160
2018-06-20T05:33:47.016Z,160
2018-06-20T05:34:55.927Z,160
2018-06-20T05:36:04.792Z,165
2018-06-20T05:37:13.653Z,175
2018-06-20T05:38:22.517Z,175
2018-06-20T05:39:31.812Z,185
2018-06-20T05:40:40.681Z,190
2018-06-20T05:41:49.748Z,180
2018-06-20T05:42:58.540Z,170
2018-06-20T05:44:07.401Z,180
2018-06-20T05:45:16.263Z,210
2018-06-20T05:46:25.281Z,235
2018-06-20T05:47:34.418Z,275
2018-06-20T05:48:43.278Z,275
2018-06-20T05:49:52.178Z,250
2018-06-20T05:51:01.324Z,265
2018-06-20T05:52:10.338Z,245
2018-06-20T05:53:19.480Z,255
2018-06-20T05:54:28.347Z,260
2018-06-20T05:55:37.211Z,265
2018-06-20T05:56:46.354Z,245
2018-06-20T05:57:56.620Z,250
2018-06-20T05:59:05.484Z,250
2018-06-20T06:00:14.347Z,215
2018-06-20T06:01:23.210Z,210
2018-06-20T06:02:32.074Z,190
2018-06-20T06:03:41.090Z,185
2018-06-20T06:04:49.956Z,180
2018-06-20T06:05:58.819Z,180
2018-06-20T06:07:07.681Z,180
2018-06-20T06:08:16.545Z,185
2018-06-20T06:09:25.737Z,195
2018-06-20T06:10:34.875Z,210
2018-06-20T06:11:44.015Z,235
2018-06-20T06:12:52.878Z,325
2018-06-20T06:14:01.753Z,340
2018-06-20T06:15:10.964Z,365
2018-06-20T06:16:19.822Z,335
2018-06-20T06:17:28.688Z,300
2018-06-20T06:18:37.555Z,330
2018-06-20T06:19:46.417Z,330
2018-06-20T06:20:55.426Z,295
2018-06-20T06:22:04.293Z,315
2018-06-20T06:23:13.750Z,325
2018-06-20T06:24:22.574Z,340
2018-06-20T06:25:31.438Z,330
2018-06-20T06:26:40.503Z,325
2018-06-20T06:27:49.642Z,355
2018-06-20T06:28:58.504Z,360
2018-06-20T06:30:07.369Z,335
2018-06-20T06:31:16.235Z,335
2018-06-20T06:32:25.449Z,350
2018-06-20T06:33:34.590Z,335
2018-06-20T06:34:43.454Z,320
2018-06-20T06:35:52.318Z,285
2018-06-20T06:37:01.183Z,345
2018-06-20T06:38:10.194Z,335
2018-06-20T06:39:19.059Z,325
2018-06-20T06:40:27.924Z,310
2018-06-20T06:41:36.790Z,285
2018-06-20T06:42:45.654Z,280
2018-06-20T06:43:55.028Z,310
2018-06-20T06:45:03.870Z,250
2018-06-20T06:46:12.733Z,265
2018-06-20T06:47:21.598Z,295
2018-06-20T06:48:30.458Z,370
2018-06-20T06:49:39.905Z,285
2018-06-20T06:50:49.055Z,300
2018-06-20T06:51:58.197Z,350
2018-06-20T06:53:07.061Z,375
2018-06-20T06:54:15.924Z,390
2018-06-20T06:55:25.213Z,370
2018-06-20T06:56:34.079Z,310
2018-06-20T06:57:42.941Z,350
2018-06-20T06:58:51.814Z,370
2018-06-20T07:00:00.673Z,330
2018-06-20T07:01:09.686Z,340
2018-06-20T07:02:18.554Z,280
2018-06-20T07:03:27.670Z,275
2018-06-20T07:04:36.535Z,335
2018-06-20T07:05:45.397Z,365
2018-06-20T07:06:54.644Z,320
2018-06-20T07:08:03.508Z,325
2018-06-20T07:09:12.690Z,415
2018-06-20T07:10:21.522Z,370
2018-06-20T07:11:30.386Z,320
2018-06-20T07:12:39.300Z,290
2018-06-20T07:13:48.166Z,280
2018-06-20T07:14:57.034Z,340
2018-06-20T07:16:05.904Z,405
2018-06-20T07:17:14.768Z,440
2018-06-20T07:18:23.679Z,415
2018-06-20T07:19:32.541Z,395
2018-06-20T07:20:41.407Z,320
2018-06-20T07:21:50.270Z,355
2018-06-20T07:22:59.133Z,390
2018-06-20T07:24:08.126Z,345
2018-06-20T07:25:16.965Z,415
2018-06-20T07:26:25.829Z,465
2018-06-20T07:27:34.975Z,510
2018-06-20T07:28:43.840Z,500
2018-06-20T07:29:53.161Z,505
2018-06-20T07:31:02.653Z,500
2018-06-20T07:32:11.517Z,410
2018-06-20T07:33:20.657Z,435
2018-06-20T07:34:29.592Z,490
2018-06-20T07:35:39.803Z,480
2018-06-20T07:36:48.497Z,475
2018-06-20T07:37:57.638Z,455
2018-06-20T07:39:06.506Z,385
2018-06-20T07:40:15.651Z,395
2018-06-20T07:41:24.565Z,440
2018-06-20T07:42:33.428Z,355
2018-06-20T07:43:42.296Z,345
2018-06-20T07:44:51.434Z,405
2018-06-20T07:46:00.301Z,400
2018-06-20T07:47:09.265Z,315
2018-06-20T07:48:18.128Z,290
2018-06-20T07:49:26.994Z,365
2018-06-20T07:50:35.889Z,385
2018-06-20T07:51:44.722Z,380
2018-06-20T07:52:54.014Z,450
2018-06-20T07:54:03.436Z,485
2018-06-20T07:55:12.298Z,495
2018-06-20T07:56:21.164Z,515
2018-06-20T07:57:30.588Z,320
2018-06-20T07:58:39.604Z,255
2018-06-20T07:59:48.466Z,260
2018-06-20T08:00:57.483Z,260
2018-06-20T08:02:06.713Z,310
2018-06-20T08:03:15.576Z,370
2018-06-20T08:04:24.492Z,305
2018-06-20T08:05:33.361Z,275
2018-06-20T08:06:42.782Z,330
2018-06-20T08:07:51.647Z,415
2018-06-20T08:09:00.508Z,465
2018-06-20T08:10:09.472Z,495
2018-06-20T08:11:18.338Z,530
2018-06-20T08:12:27.562Z,520
2018-06-20T08:13:36.920Z,465
2018-06-20T08:14:45.782Z,410
2018-06-20T08:15:54.849Z,380
2018-06-20T08:17:03.717Z,380
2018-06-20T08:18:12.583Z,380
2018-06-20T08:19:21.452Z,395
2018-06-20T08:20:30.315Z,390
2018-06-20T08:21:39.330Z,380
2018-06-20T08:22:48.193Z,440
2018-06-20T08:23:57.058Z,535
2018-06-20T08:25:05.926Z,505
2018-06-20T08:26:14.791Z,485
2018-06-20T08:27:24.031Z,505
2018-06-20T08:28:33.176Z,480
2018-06-20T08:29:42.042Z,450
2018-06-20T08:30:50.906Z,445
2018-06-20T08:31:59.775Z,490
2018-06-20T08:33:08.890Z,565
2018-06-20T08:34:18.028Z,585
2018-06-20T08:35:26.895Z,605
2018-06-20T08:36:35.760Z,610
2018-06-20T08:37:44.625Z,560
2018-06-20T08:38:53.541Z,595
2018-06-20T08:40:02.406Z,575
2018-06-20T08:41:11.885Z,590
2018-06-20T08:42:21.071Z,620
2018-06-20T08:43:30.172Z,650
2018-06-20T08:44:39.394Z,625
2018-06-20T08:45:48.539Z,615
2018-06-20T08:46:57.404Z,580
2018-06-20T08:48:06.269Z,555
2018-06-20T08:49:15.138Z,535
2018-06-20T08:50:24.154Z,540
2018-06-20T08:51:33.293Z,550
2018-06-20T08:52:42.161Z,570
2018-06-20T08:53:51.026Z,585
2018-06-20T08:55:00.170Z,605
2018-06-20T08:56:09.088Z,620
2018-06-20T08:57:17.955Z,625
2018-06-20T08:58:26.822Z,630
2018-06-20T08:59:35.690Z,625
2018-06-20T09:00:44.838Z,625
2018-06-20T09:01:53.980Z,615
2018-06-20T09:03:02.845Z,615
2018-06-20T09:04:11.718Z,625
2018-06-20T09:05:21.146Z,630
2018-06-20T09:06:30.014Z,630
2018-06-20T09:07:38.931Z,625
2018-06-20T09:08:47.879Z,635
2018-06-20T09:09:56.939Z,650
2018-06-20T09:11:05.806Z,675
2018-06-20T09:12:14.675Z,695
2018-06-20T09:13:23.596Z,710
2018-06-20T09:14:32.458Z,725
2018-06-20T09:15:41.323Z,740
2018-06-20T09:16:50.191Z,750
2018-06-20T09:17:59.336Z,755
2018-06-20T09:19:08.251Z,760
2018-06-20T09:20:17.119Z,750
2018-06-20T09:21:26.264Z,760
2018-06-20T09:22:35.133Z,765
2018-06-20T09:23:43.999Z,730
2018-06-20T09:24:53.302Z,720
2018-06-20T09:26:02.450Z,690
2018-06-20T09:27:11.317Z,655
2018-06-20T09:28:20.185Z,645
2018-06-20T09:29:29.048Z,635
2018-06-20T09:30:37.969Z,580
2018-06-20T09:31:46.835Z,555
2018-06-20T09:32:55.706Z,495
2018-06-20T09:34:04.570Z,455
2018-06-20T09:35:13.710Z,500
2018-06-20T09:36:22.778Z,580
2018-06-20T09:37:31.928Z,600
2018-06-20T09:38:40.873Z,645
2018-06-20T09:39:50.420Z,645
2018-06-20T09:40:59.287Z,650
2018-06-20T09:42:08.203Z,675
2018-06-20T09:43:17.070Z,670
2018-06-20T09:44:25.937Z,595
2018-06-20T09:45:34.801Z,545
2018-06-20T09:46:43.671Z,540
2018-06-20T09:47:52.589Z,515
2018-06-20T09:49:01.455Z,460
2018-06-20T09:50:10.321Z,430
2018-06-20T09:51:19.187Z,420
2018-06-20T09:52:28.058Z,425
2018-06-20T09:53:37.450Z,455
2018-06-20T09:54:46.594Z,430
2018-06-20T09:55:55.739Z,425
2018-06-20T09:57:04.604Z,425
2018-06-20T09:58:13.474Z,480
2018-06-20T09:59:22.628Z,440
2018-06-20T10:00:31.527Z,500
2018-06-20T10:01:41.207Z,555
2018-06-20T10:02:50.072Z,740
2018-06-20T10:03:59.265Z,720
2018-06-20T10:05:08.470Z,745
2018-06-20T10:06:17.337Z,715
2018-06-20T10:07:26.205Z,675
2018-06-20T10:08:35.349Z,545
2018-06-20T10:09:44.218Z,415
2018-06-20T10:10:53.712Z,370
2018-06-20T10:12:02.580Z,355
2018-06-20T10:13:11.503Z,445
2018-06-20T10:14:20.592Z,565
2018-06-20T10:15:29.455Z,655
2018-06-20T10:16:38.674Z,725
2018-06-20T10:17:47.545Z,730
2018-06-20T10:18:56.687Z,705
2018-06-20T10:20:05.554Z,650
2018-06-20T10:21:14.907Z,635
2018-06-20T10:22:24.103Z,705
2018-06-20T10:23:33.248Z,680
2018-06-20T10:24:42.394Z,620
2018-06-20T10:25:51.264Z,535
2018-06-20T10:27:00.130Z,460
2018-06-20T10:28:09.095Z,405
2018-06-20T10:29:17.962Z,385
2018-06-20T10:30:27.102Z,390
2018-06-20T10:31:35.973Z,395
2018-06-20T10:32:44.836Z,430
2018-06-20T10:33:53.750Z,505
2018-06-20T10:35:02.620Z,550
2018-06-20T10:36:11.493Z,555
2018-06-20T10:37:20.635Z,560
2018-06-20T10:38:29.506Z,475
2018-06-20T10:39:38.473Z,515
2018-06-20T10:40:47.341Z,565
2018-06-20T10:41:56.208Z,515
2018-06-20T10:43:05.075Z,540
2018-06-20T10:44:14.219Z,535
2018-06-20T10:45:23.089Z,515
2018-06-20T10:46:32.337Z,470
2018-06-20T10:47:41.480Z,405
2018-06-20T10:48:50.349Z,395
2018-06-20T10:49:59.227Z,375
2018-06-20T10:51:08.628Z,370
2018-06-20T10:52:17.771Z,380
2018-06-20T10:53:26.734Z,400
2018-06-20T10:54:35.525Z,450
2018-06-20T10:55:44.387Z,420
2018-06-20T10:56:53.925Z,460
2018-06-20T10:58:02.844Z,505
2018-06-20T10:59:11.713Z,555
2018-06-20T11:00:20.855Z,620
2018-06-20T11:01:29.725Z,675
2018-06-20T11:02:38.806Z,715
2018-06-20T11:03:47.688Z,635
2018-06-20T11:04:56.553Z,620
2018-06-20T11:06:05.424Z,615
2018-06-20T11:07:14.293Z,515
2018-06-20T11:08:23.650Z,505
2018-06-20T11:09:32.638Z,575
2018-06-20T11:10:41.501Z,635
2018-06-20T11:11:50.371Z,635
2018-06-20T11:12:59.237Z,655
2018-06-20T11:14:08.569Z,705
2018-06-20T11:15:17.515Z,765
2018-06-20T11:16:26.333Z,670
2018-06-20T11:17:35.478Z,580
2018-06-20T11:18:44.622Z,660
2018-06-20T11:19:53.771Z,720
2018-06-20T11:21:02.914Z,710
2018-06-20T11:22:11.795Z,710
2018-06-20T11:23:21.123Z,645
2018-06-20T11:24:29.917Z,590
2018-06-20T11:25:38.856Z,570
2018-06-20T11:26:48.008Z,430
2018-06-20T11:27:56.881Z,500
2018-06-20T11:29:05.753Z,590
2018-06-20T11:30:14.916Z,665
2018-06-20T11:31:23.978Z,660
2018-06-20T11:32:32.860Z,635
2018-06-20T11:33:41.730Z,600
2018-06-20T11:34:50.616Z,660
2018-06-20T11:35:59.768Z,550
2018-06-20T11:37:09.065Z,555
2018-06-20T11:38:17.932Z,680
2018-06-20T11:39:26.826Z,735
2018-06-20T11:40:35.687Z,760
2018-06-20T11:41:44.553Z,760
2018-06-20T11:42:53.471Z,705
2018-06-20T11:44:02.340Z,675
2018-06-20T11:45:11.212Z,715
2018-06-20T11:46:20.081Z,770
2018-06-20T11:47:28.948Z,845
2018-06-20T11:48:37.916Z,805
2018-06-20T11:49:46.797Z,680
2018-06-20T11:50:55.653Z,665
2018-06-20T11:52:04.800Z,705
2018-06-20T11:53:13.676Z,830
2018-06-20T11:54:22.747Z,895
2018-06-20T11:55:31.894Z,570
2018-06-20T11:56:40.759Z,460
2018-06-20T11:57:49.628Z,520
2018-06-20T11:58:58.773Z,650
2018-06-20T12:00:07.789Z,2940
2018-06-20T12:01:16.659Z,2425
2018-06-20T12:02:25.527Z,765
2018-06-20T12:03:34.393Z,2595
2018-06-20T12:04:43.262Z,665
2018-06-20T12:05:52.288Z,735
2018-06-20T12:07:01.438Z,3220
2018-06-20T12:08:10.873Z,3270
2018-06-20T12:09:20.023Z,3410
2018-06-20T12:10:28.896Z,2840
2018-06-20T12:11:37.973Z,1235
2018-06-20T12:12:46.840Z,3585
2018-06-20T12:13:55.720Z,3210
2018-06-20T12:15:04.589Z,640
2018-06-20T12:16:13.461Z,600
2018-06-20T12:17:22.485Z,905
2018-06-20T12:18:31.352Z,2675
2018-06-20T12:19:40.220Z,3640
2018-06-20T12:20:49.094Z,3775
2018-06-20T12:21:58.262Z,1900
2018-06-20T12:23:07.478Z,2850
2018-06-20T12:24:16.350Z,3930
2018-06-20T12:25:25.221Z,3680
2018-06-20T12:26:34.093Z,3765
2018-06-20T12:27:42.974Z,3520
2018-06-20T12:28:51.998Z,605
2018-06-20T12:30:01.151Z,570
2018-06-20T12:31:10.028Z,625
2018-06-20T12:32:19.179Z,3530
2018-06-20T12:33:28.052Z,3705
2018-06-20T12:34:37.177Z,3055
2018-06-20T12:35:46.050Z,1715
2018-06-20T12:36:54.926Z,2385
2018-06-20T12:38:03.800Z,735
2018-06-20T12:39:12.672Z,730
2018-06-20T12:40:21.896Z,875
2018-06-20T12:41:30.771Z,895
2018-06-20T12:42:39.641Z,3580
2018-06-20T12:43:48.793Z,805
2018-06-20T12:44:57.949Z,745
2018-06-20T12:46:06.832Z,770
2018-06-20T12:47:15.972Z,3160
2018-06-20T12:48:24.997Z,950
2018-06-20T12:49:35.107Z,910
2018-06-20T12:50:45.155Z,1265
2018-06-20T12:51:54.144Z,1175
2018-06-20T12:53:03.016Z,3770
2018-06-20T12:54:11.890Z,920
2018-06-20T12:55:21.042Z,1730
2018-06-20T12:56:30.190Z,3790
2018-06-20T12:57:39.063Z,3870
2018-06-20T12:58:47.936Z,3845
2018-06-20T12:59:57.089Z,1590
2018-06-20T13:01:06.247Z,1100
2018-06-20T13:02:15.398Z,3535
2018-06-20T13:03:24.271Z,2425
2018-06-20T13:04:33.146Z,3950
2018-06-20T13:05:42.301Z,2425
2018-06-20T13:06:51.173Z,3775
2018-06-20T13:08:00.603Z,625
2018-06-20T13:09:09.479Z,3660
2018-06-20T13:10:18.352Z,3695
2018-06-20T13:11:27.276Z,745
2018-06-20T13:12:36.429Z,875
2018-06-20T13:13:45.584Z,685
2018-06-20T13:14:54.462Z,695
2018-06-20T13:16:03.613Z,700
2018-06-20T13:17:12.851Z,720
2018-06-20T13:18:21.735Z,900
2018-06-20T13:19:30.613Z,3580
2018-06-20T13:20:39.503Z,3450
2018-06-20T13:21:48.411Z,3705
2018-06-20T13:22:57.814Z,3770
2018-06-20T13:24:06.688Z,3735
2018-06-20T13:25:15.573Z,4000
2018-06-20T13:26:24.458Z,3935
2018-06-20T13:27:33.352Z,3705
2018-06-20T13:28:42.280Z,3945
2018-06-20T13:29:51.444Z,3675
2018-06-20T13:31:00.328Z,2465
2018-06-20T13:32:09.218Z,1635
2018-06-20T13:33:18.097Z,1065
2018-06-20T13:34:27.071Z,4275
2018-06-20T13:35:35.947Z,760
2018-06-20T13:36:44.823Z,2960
2018-06-20T13:37:53.698Z,970
2018-06-20T13:39:02.577Z,4115
2018-06-20T13:40:11.607Z,4215
2018-06-20T13:41:20.481Z,1035
2018-06-20T13:42:29.356Z,3895
2018-06-20T13:43:38.233Z,890
2018-06-20T13:44:47.104Z,790
2018-06-20T13:45:56.314Z,2395
2018-06-20T13:47:05.188Z,4060
2018-06-20T13:48:14.620Z,3695
2018-06-20T13:49:23.497Z,3825
2018-06-20T13:50:32.371Z,3590
2018-06-20T13:51:41.350Z,1650
2018-06-20T13:52:50.226Z,895
2018-06-20T13:53:59.393Z,750
2018-06-20T13:55:08.267Z,4040
2018-06-20T13:56:17.635Z,4150
2018-06-20T13:57:26.528Z,3905
2018-06-20T13:58:35.407Z,3780
2018-06-20T13:59:44.282Z,3955
2018-06-20T14:00:53.161Z,3940
2018-06-20T14:02:02.315Z,3960
2018-06-20T14:03:11.821Z,900
2018-06-20T14:04:20.975Z,3895
2018-06-20T14:05:29.853Z,3725
2018-06-20T14:06:38.732Z,3840
2018-06-20T14:07:47.608Z,4010
2018-06-20T14:08:56.487Z,3700
2018-06-20T14:10:05.370Z,3690
2018-06-20T14:11:14.305Z,1030
2018-06-20T14:12:23.135Z,3860
2018-06-20T14:13:32.011Z,3650
2018-06-20T14:14:40.992Z,3580
2018-06-20T14:15:50.150Z,3315
2018-06-20T14:16:59.031Z,3320
2018-06-20T14:18:08.205Z,1070
2018-06-20T14:19:17.086Z,830
2018-06-20T14:20:26.505Z,1045
2018-06-20T14:21:35.732Z,1230
2018-06-20T14:22:44.884Z,4030
2018-06-20T14:23:53.806Z,3980
2018-06-20T14:25:02.683Z,3715
2018-06-20T14:26:12.000Z,3775
2018-06-20T14:27:20.883Z,3990
2018-06-20T14:28:30.036Z,3740
2018-06-20T14:29:38.943Z,3605
2018-06-20T14:30:48.110Z,3630
2018-06-20T14:31:57.105Z,3555
2018-06-20T14:33:05.985Z,3495
2018-06-20T14:34:14.871Z,3730
2018-06-20T14:35:23.756Z,2520
2018-06-20T14:36:32.638Z,3660
2018-06-20T14:37:41.718Z,2285
2018-06-20T14:38:51.418Z,3845
2018-06-20T14:40:00.639Z,3705
2018-06-20T14:41:09.817Z,3730
2018-06-20T14:42:18.711Z,3615
2018-06-20T14:43:28.128Z,3445
2018-06-20T14:44:37.014Z,3625
2018-06-20T14:45:45.908Z,3615
2018-06-20T14:46:54.795Z,3420
2018-06-20T14:48:03.673Z,3535
2018-06-20T14:49:12.878Z,3825
2018-06-20T14:50:21.757Z,3800
2018-06-20T14:51:30.664Z,3490
2018-06-20T14:52:39.828Z,705
2018-06-20T14:53:48.709Z,935
2018-06-20T14:54:57.870Z,3580
2018-06-20T14:56:07.030Z,3690
2018-06-20T14:57:15.912Z,3680
2018-06-20T14:58:24.796Z,3455
2018-06-20T14:59:34.233Z,3460
2018-06-20T15:00:43.215Z,3360
2018-06-20T15:01:52.370Z,3360
2018-06-20T15:03:01.251Z,3165
2018-06-20T15:04:10.415Z,2965
2018-06-20T15:05:19.294Z,3290
2018-06-20T15:06:28.177Z,2320
2018-06-20T15:07:40.313Z,2435
2018-06-20T15:08:52.729Z,3305
2018-06-20T15:10:03.345Z,3460
2018-06-20T15:11:12.669Z,825
2018-06-20T15:12:21.638Z,660
2018-06-20T15:13:30.797Z,3140
2018-06-20T15:14:39.679Z,3570
2018-06-20T15:15:48.839Z,3115
2018-06-20T15:16:57.723Z,2865
2018-06-20T15:18:06.606Z,2780
2018-06-20T15:19:15.489Z,2885
2018-06-20T15:20:24.371Z,3035
2018-06-20T15:21:33.251Z,3115
2018-06-20T15:22:42.132Z,2810
2018-06-20T15:23:51.165Z,3035
2018-06-20T15:25:00.056Z,3045
2018-06-20T15:26:08.941Z,2565
2018-06-20T15:27:17.816Z,1475
2018-06-20T15:28:26.700Z,2825
2018-06-20T15:29:35.733Z,2965
2018-06-20T15:30:44.620Z,2940
2018-06-20T15:31:53.502Z,2840
2018-06-20T15:33:02.382Z,2875
2018-06-20T15:34:11.263Z,2990
2018-06-20T15:35:20.227Z,2930
2018-06-20T15:36:29.078Z,2805
2018-06-20T15:37:37.981Z,1145
2018-06-20T15:38:47.138Z,755
2018-06-20T15:39:56.301Z,1930
2018-06-20T15:41:05.283Z,2575
2018-06-20T15:42:14.299Z,2920
2018-06-20T15:43:23.549Z,2905
2018-06-20T15:44:32.430Z,2685
2018-06-20T15:45:41.593Z,2670
2018-06-20T15:46:50.862Z,2745
2018-06-20T15:48:00.312Z,2595
2018-06-20T15:49:09.470Z,605
2018-06-20T15:50:18.640Z,2680
2018-06-20T15:51:27.803Z,1770
2018-06-20T15:52:36.943Z,945
2018-06-20T15:53:45.826Z,2330
2018-06-20T15:54:54.704Z,2740
2018-06-20T15:56:03.871Z,2780
2018-06-20T15:57:13.031Z,2830
2018-06-20T15:58:21.962Z,2795
2018-06-20T15:59:30.842Z,2690
2018-06-20T16:00:39.725Z,2625
2018-06-20T16:01:48.881Z,2500
2018-06-20T16:02:57.761Z,2625
2018-06-20T16:04:06.797Z,2685
2018-06-20T16:05:15.681Z,2645
2018-06-20T16:06:24.564Z,990
2018-06-20T16:07:33.447Z,2355
2018-06-20T16:08:42.332Z,1925
2018-06-20T16:09:51.561Z,2710
2018-06-20T16:11:00.393Z,2580
2018-06-20T16:12:09.274Z,2500
2018-06-20T16:13:18.155Z,2635
2018-06-20T16:14:27.041Z,2470
2018-06-20T16:15:36.025Z,2490
2018-06-20T16:16:44.906Z,2365
2018-06-20T16:17:54.072Z,2500
2018-06-20T16:19:02.954Z,2365
2018-06-20T16:20:11.852Z,2595
2018-06-20T16:21:20.784Z,1205
2018-06-20T16:22:29.671Z,2255
2018-06-20T16:23:39.111Z,2345
2018-06-20T16:24:47.990Z,2505
2018-06-20T16:25:56.873Z,2520
2018-06-20T16:27:06.106Z,2495
2018-06-20T16:28:14.987Z,2355
2018-06-20T16:29:23.869Z,2545
2018-06-20T16:30:32.859Z,1410
2018-06-20T16:31:41.744Z,1240
2018-06-20T16:32:51.249Z,2380
2018-06-20T16:34:00.130Z,2455
2018-06-20T16:35:09.009Z,2215
2018-06-20T16:36:17.890Z,2225
2018-06-20T16:37:27.381Z,1245
2018-06-20T16:38:36.340Z,2170
2018-06-20T16:39:45.546Z,620
2018-06-20T16:40:54.985Z,540